createdAt,value
2023-02-23T00:00:28.386Z,74.90
2023-02-23T00:01:00.441Z,73.28
2023-02-23T00:01:32.028Z,71.07
2023-02-23T00:02:06.414Z,80.05
2023-02-23T00:02:39.052Z,73.22
2023-02-23T00:03:10.692Z,78.30
2023-02-23T00:03:42.499Z,73.47
2023-02-23T00:04:14.051Z,83.95
2023-02-23T00:04:45.655Z,75.63
2023-02-23T00:05:17.590Z,74.20
2023-02-23T00:05:49.138Z,81.88
2023-02-23T00:06:20.949Z,77.90
2023-02-23T00:06:53.386Z,79.68
2023-02-23T00:07:27.069Z,78.55
2023-02-23T00:07:59.069Z,76.93
2023-02-23T00:08:30.961Z,78.50
2023-02-23T00:09:10.581Z,80.55
2023-02-23T00:09:42.198Z,83.32
2023-02-23T00:10:14.962Z,84.80
2023-02-23T00:10:46.418Z,82.60
2023-02-23T00:11:19.119Z,76.68
2023-02-23T00:11:51.767Z,82.50
2023-02-23T00:12:24.057Z,80.18
2023-02-23T00:12:57.078Z,78.47
2023-02-23T00:13:28.612Z,82.05
2023-02-23T00:14:01.286Z,79.22
2023-02-23T00:14:33.338Z,82.82
2023-02-23T00:15:05.338Z,85.63
2023-02-23T00:15:36.954Z,82.00
2023-02-23T00:16:12.619Z,76.43
2023-02-23T00:16:45.429Z,84.03
2023-02-23T00:17:17.590Z,76.28
2023-02-23T00:17:49.072Z,78.07
2023-02-23T00:18:20.977Z,78.82
2023-02-23T00:19:00.457Z,82.13
2023-02-23T00:19:33.552Z,83.40
2023-02-23T00:20:13.292Z,81.15
2023-02-23T00:20:57.561Z,72.93
2023-02-23T00:21:31.820Z,74.53
2023-02-23T00:22:03.506Z,81.75
2023-02-23T00:22:42.394Z,76.32
2023-02-23T00:23:15.068Z,78.85
2023-02-23T00:23:54.932Z,82.50
2023-02-23T00:24:27.122Z,80.22
2023-02-23T00:24:59.645Z,79.32
2023-02-23T00:25:31.240Z,86.85
2023-02-23T00:26:04.444Z,82.03
2023-02-23T00:26:38.117Z,76.75
2023-02-23T00:27:12.703Z,79.30
2023-02-23T00:27:44.544Z,82.53
2023-02-23T00:28:16.525Z,74.25
2023-02-23T00:28:49.128Z,84.28
2023-02-23T00:29:22.738Z,77.35
2023-02-23T00:29:54.236Z,80.32
2023-02-23T00:30:26.478Z,77.57
2023-02-23T00:30:59.870Z,80.50
2023-02-23T00:31:31.970Z,78.32
2023-02-23T00:32:03.653Z,81.95
2023-02-23T00:32:35.413Z,89.88
2023-02-23T00:33:07.414Z,73.25
2023-02-23T00:33:40.124Z,72.95
2023-02-23T00:34:15.135Z,79.00
2023-02-23T00:34:49.597Z,78.60
2023-02-23T00:35:21.113Z,80.20
2023-02-23T00:35:52.614Z,89.45
2023-02-23T00:36:28.277Z,79.45
2023-02-23T00:36:59.762Z,83.32
2023-02-23T00:37:31.228Z,85.70
2023-02-23T00:38:02.747Z,76.13
2023-02-23T00:38:36.378Z,85.57
2023-02-23T00:39:31.805Z,89.13
2023-02-23T00:40:13.216Z,76.03
2023-02-23T00:40:45.961Z,79.25
2023-02-23T00:41:20.176Z,88.93
2023-02-23T00:41:53.201Z,75.82
2023-02-23T00:42:24.800Z,77.65
2023-02-23T00:42:58.175Z,84.50
2023-02-23T00:43:36.087Z,81.60
2023-02-23T00:44:07.584Z,83.85
2023-02-23T00:44:40.629Z,81.50
2023-02-23T00:45:15.366Z,80.30
2023-02-23T00:45:46.860Z,81.55
2023-02-23T00:46:21.258Z,86.05
2023-02-23T00:46:53.008Z,81.28
2023-02-23T00:47:24.584Z,80.05
2023-02-23T00:47:56.090Z,82.10
2023-02-23T00:48:28.685Z,75.72
2023-02-23T00:49:01.042Z,76.28
2023-02-23T00:49:33.290Z,77.88
2023-02-23T00:50:07.962Z,76.22
2023-02-23T00:50:41.464Z,76.90
2023-02-23T00:51:13.281Z,79.63
2023-02-23T00:51:45.032Z,75.70
2023-02-23T00:52:16.543Z,80.00
2023-02-23T00:52:48.048Z,81.07
2023-02-23T00:53:19.530Z,80.07
2023-02-23T00:53:54.398Z,81.38
2023-02-23T00:54:26.087Z,78.70
2023-02-23T00:54:57.569Z,84.95
2023-02-23T00:55:29.044Z,80.57
2023-02-23T00:56:00.576Z,74.03
2023-02-23T00:56:32.266Z,83.45
2023-02-23T00:57:03.860Z,83.10
2023-02-23T00:57:35.746Z,83.65
2023-02-23T00:58:09.603Z,76.32
2023-02-23T00:58:41.467Z,82.88
2023-02-23T00:59:14.124Z,82.90
2023-02-23T00:59:45.758Z,74.13
2023-02-23T01:00:20.400Z,78.90
2023-02-23T01:00:53.391Z,82.85
2023-02-23T01:01:26.484Z,76.53
2023-02-23T01:01:58.043Z,86.00
2023-02-23T01:02:32.590Z,78.70
2023-02-23T01:03:04.220Z,84.32
2023-02-23T01:03:36.384Z,77.63
2023-02-23T01:04:08.275Z,73.70
2023-02-23T01:04:39.854Z,81.15
2023-02-23T01:05:11.821Z,81.15
2023-02-23T01:05:43.969Z,83.72
2023-02-23T01:06:17.110Z,73.07
2023-02-23T01:06:48.849Z,74.60
2023-02-23T01:07:20.924Z,72.75
2023-02-23T01:07:54.194Z,81.63
2023-02-23T01:08:25.813Z,80.93
2023-02-23T01:08:58.903Z,77.90
2023-02-23T01:09:30.385Z,78.63
2023-02-23T01:10:01.895Z,74.82
2023-02-23T01:10:33.436Z,75.05
2023-02-23T01:11:13.282Z,78.00
2023-02-23T01:11:46.904Z,74.32
2023-02-23T01:12:19.549Z,83.10
2023-02-23T01:12:51.845Z,86.47
2023-02-23T01:13:24.218Z,73.22
2023-02-23T01:13:57.586Z,80.53
2023-02-23T01:14:29.619Z,78.45
2023-02-23T01:15:03.301Z,87.25
2023-02-23T01:15:44.280Z,78.10
2023-02-23T01:16:17.904Z,76.93
2023-02-23T01:16:49.431Z,83.03
2023-02-23T01:17:20.922Z,84.28
2023-02-23T01:17:52.448Z,84.90
2023-02-23T01:18:24.421Z,77.57
2023-02-23T01:19:00.199Z,77.18
2023-02-23T01:19:34.073Z,80.90
2023-02-23T01:20:17.584Z,85.82
2023-02-23T01:20:50.574Z,78.40
2023-02-23T01:21:25.380Z,80.03
2023-02-23T01:21:57.655Z,77.22
2023-02-23T01:22:29.164Z,76.43
2023-02-23T01:23:00.665Z,72.45
2023-02-23T01:23:32.386Z,76.32
2023-02-23T01:24:04.117Z,78.00
2023-02-23T01:24:35.834Z,71.20
2023-02-23T01:25:10.632Z,68.63
2023-02-23T01:25:43.937Z,76.03
2023-02-23T01:26:19.089Z,66.47
2023-02-23T01:26:50.568Z,67.03
2023-02-23T01:27:22.038Z,67.20
2023-02-23T01:27:54.442Z,68.47
2023-02-23T01:28:25.958Z,69.28
2023-02-23T01:29:00.645Z,78.70
2023-02-23T01:29:32.284Z,72.32
2023-02-23T01:30:04.065Z,73.53
2023-02-23T01:30:35.707Z,70.32
2023-02-23T01:31:10.185Z,66.07
2023-02-23T01:31:44.742Z,72.63
2023-02-23T01:32:16.384Z,70.40
2023-02-23T01:32:48.133Z,70.70
2023-02-23T01:33:19.895Z,78.47
2023-02-23T01:33:59.124Z,67.55
2023-02-23T01:34:30.598Z,58.60
2023-02-23T01:35:07.806Z,80.90
2023-02-23T01:35:40.012Z,69.18
2023-02-23T01:36:13.061Z,73.88
2023-02-23T01:36:45.020Z,69.78
2023-02-23T01:37:16.594Z,77.50
2023-02-23T01:37:49.748Z,81.53
2023-02-23T01:38:25.061Z,83.53
2023-02-23T01:38:57.417Z,83.70
2023-02-23T01:39:28.980Z,79.15
2023-02-23T01:40:00.437Z,81.35
2023-02-23T01:40:32.874Z,82.65
2023-02-23T01:41:09.466Z,80.63
2023-02-23T01:41:44.694Z,80.28
2023-02-23T01:42:16.191Z,73.68
2023-02-23T01:42:50.315Z,75.93
2023-02-23T01:43:28.270Z,75.07
2023-02-23T01:44:06.464Z,70.28
2023-02-23T01:44:40.170Z,71.22
2023-02-23T01:45:23.697Z,76.57
2023-02-23T01:45:56.568Z,74.35
2023-02-23T01:46:39.835Z,71.57
2023-02-23T01:47:14.188Z,73.20
2023-02-23T01:47:46.070Z,82.32
2023-02-23T01:48:21.151Z,78.55
2023-02-23T01:48:56.399Z,85.53
2023-02-23T01:49:29.698Z,84.65
2023-02-23T01:50:02.137Z,83.68
2023-02-23T01:50:42.877Z,84.78
2023-02-23T01:51:18.492Z,84.07
2023-02-23T01:51:53.943Z,90.07
2023-02-23T01:52:25.754Z,86.95
2023-02-23T01:53:00.077Z,91.05
2023-02-23T01:53:35.437Z,87.97
2023-02-23T01:54:15.829Z,84.45
2023-02-23T01:54:50.449Z,81.68
2023-02-23T01:55:24.540Z,92.45
2023-02-23T01:56:11.381Z,90.40
2023-02-23T01:56:45.891Z,79.70
2023-02-23T01:57:20.828Z,83.55
2023-02-23T01:58:00.796Z,83.15
2023-02-23T01:58:33.751Z,92.75
2023-02-23T01:59:06.676Z,89.30
2023-02-23T01:59:44.375Z,84.07
2023-02-23T02:00:19.991Z,86.35
2023-02-23T02:00:54.754Z,91.25
2023-02-23T02:01:29.525Z,87.10
2023-02-23T02:02:07.821Z,100.22
2023-02-23T02:02:39.701Z,99.30
2023-02-23T02:03:16.084Z,88.53
2023-02-23T02:03:57.689Z,96.13
2023-02-23T02:04:33.563Z,90.88
2023-02-23T02:05:13.298Z,98.90
2023-02-23T02:05:45.675Z,93.28
2023-02-23T02:06:18.427Z,91.82
2023-02-23T02:06:53.665Z,84.30
2023-02-23T02:07:29.265Z,86.57
2023-02-23T02:08:06.373Z,93.40
2023-02-23T02:08:45.399Z,83.32
2023-02-23T02:09:17.562Z,88.75
2023-02-23T02:10:09.134Z,87.22
2023-02-23T02:10:46.375Z,105.32
2023-02-23T02:11:36.046Z,89.18
2023-02-23T02:12:12.003Z,92.82
2023-02-23T02:12:46.845Z,87.40
2023-02-23T02:13:20.647Z,84.30
2023-02-23T02:14:12.916Z,89.53
2023-02-23T02:14:45.659Z,84.25
2023-02-23T02:15:17.768Z,80.88
2023-02-23T02:16:15.171Z,90.50
2023-02-23T02:17:02.556Z,82.07
2023-02-23T02:17:39.734Z,82.22
2023-02-23T02:18:24.113Z,88.20
2023-02-23T02:19:18.973Z,86.55
2023-02-23T02:20:13.615Z,92.38
2023-02-23T02:21:07.940Z,87.93
2023-02-23T02:21:57.789Z,71.82
2023-02-23T02:22:41.725Z,95.40
2023-02-23T02:23:44.961Z,85.88
2023-02-23T02:24:28.725Z,74.57
2023-02-23T02:25:43.565Z,82.07
2023-02-23T02:26:37.556Z,75.57
2023-02-23T02:27:33.689Z,70.18
2023-02-23T02:28:30.259Z,71.20
2023-02-23T02:29:20.365Z,72.40
2023-02-23T02:30:03.794Z,67.63
2023-02-23T02:30:55.701Z,79.32
2023-02-23T02:31:50.112Z,78.53
2023-02-23T02:32:39.672Z,75.93
2023-02-23T02:33:23.560Z,81.10
2023-02-23T02:33:59.145Z,83.85
2023-02-23T02:34:49.844Z,76.75
2023-02-23T02:35:40.032Z,77.50
2023-02-23T02:36:28.238Z,80.18
2023-02-23T02:37:26.439Z,72.88
2023-02-23T02:38:07.189Z,73.55
2023-02-23T02:38:55.726Z,79.47
2023-02-23T02:39:38.391Z,74.28
2023-02-23T02:40:32.573Z,77.40
2023-02-23T02:41:25.563Z,74.80
2023-02-23T02:42:21.556Z,83.07
2023-02-23T02:43:13.044Z,82.85
2023-02-23T02:43:56.523Z,78.28
2023-02-23T02:44:34.410Z,77.75
2023-02-23T02:45:14.460Z,76.28
2023-02-23T02:45:54.465Z,73.15
2023-02-23T02:46:34.748Z,78.57
2023-02-23T02:47:57.332Z,71.55
2023-02-23T02:48:36.832Z,74.13
2023-02-23T02:49:50.885Z,80.25
2023-02-23T02:50:31.472Z,65.50
2023-02-23T02:51:10.075Z,74.47
2023-02-23T02:51:50.620Z,75.75
2023-02-23T02:52:45.349Z,76.53
2023-02-23T02:53:46.081Z,69.82
2023-02-23T02:54:23.833Z,74.45
2023-02-23T02:55:05.614Z,73.10
2023-02-23T02:55:42.706Z,65.35
2023-02-23T02:56:19.852Z,76.32
2023-02-23T02:56:54.569Z,74.95
2023-02-23T02:57:27.883Z,70.32
2023-02-23T02:58:02.361Z,77.07
2023-02-23T02:58:35.630Z,83.35
2023-02-23T02:59:29.519Z,70.70
2023-02-23T03:00:20.225Z,71.30
2023-02-23T03:01:10.261Z,71.93
2023-02-23T03:02:00.346Z,74.30
2023-02-23T03:02:54.032Z,74.32
2023-02-23T03:03:49.760Z,72.28
2023-02-23T03:04:43.332Z,68.40
2023-02-23T03:05:40.963Z,65.68
2023-02-23T03:06:31.309Z,67.25
2023-02-23T03:07:27.191Z,74.55
2023-02-23T03:08:39.614Z,78.63
2023-02-23T03:10:27.772Z,73.85
2023-02-23T03:11:24.034Z,78.63
2023-02-23T03:12:28.195Z,77.55
2023-02-23T03:13:35.684Z,77.43
2023-02-23T03:14:47.764Z,67.72
2023-02-23T03:15:47.263Z,73.60
2023-02-23T03:16:45.585Z,74.80
2023-02-23T03:18:00.065Z,85.50
2023-02-23T03:18:59.113Z,80.30
2023-02-23T03:19:55.233Z,73.07
2023-02-23T03:20:54.505Z,75.13
2023-02-23T03:21:50.062Z,74.00
2023-02-23T03:23:12.666Z,73.82
2023-02-23T03:24:28.992Z,70.55
2023-02-23T03:25:32.748Z,74.25
2023-02-23T03:26:26.014Z,72.03
2023-02-23T03:27:27.738Z,72.20
2023-02-23T03:28:31.599Z,73.43
2023-02-23T03:29:31.739Z,77.15
2023-02-23T03:30:45.322Z,75.93
2023-02-23T03:32:03.481Z,77.57
2023-02-23T03:32:58.437Z,74.03
2023-02-23T03:33:58.723Z,72.88
2023-02-23T03:35:06.117Z,69.60
2023-02-23T03:36:18.468Z,78.13
2023-02-23T03:38:06.527Z,71.78
2023-02-23T03:39:02.117Z,74.78
2023-02-23T03:39:57.477Z,77.18
2023-02-23T03:40:54.718Z,78.00
2023-02-23T03:41:45.926Z,82.53
2023-02-23T03:42:37.963Z,89.88
2023-02-23T03:43:32.456Z,74.43
2023-02-23T03:44:29.556Z,63.60
2023-02-23T03:45:24.475Z,73.40
2023-02-23T03:46:16.015Z,63.33
2023-02-23T03:47:06.727Z,64.68
2023-02-23T03:47:59.523Z,67.45
2023-02-23T03:48:50.561Z,67.60
2023-02-23T03:49:42.621Z,66.45
2023-02-23T03:50:49.667Z,67.03
2023-02-23T03:51:40.725Z,61.20
2023-02-23T03:52:35.664Z,61.75
2023-02-23T03:53:26.764Z,68.60
2023-02-23T03:54:42.492Z,67.15
2023-02-23T03:55:37.871Z,70.25
2023-02-23T03:56:28.334Z,73.20
2023-02-23T03:57:20.817Z,64.50
2023-02-23T03:58:13.502Z,66.68
2023-02-23T03:59:07.605Z,67.78
2023-02-23T04:00:01.244Z,55.00
2023-02-23T04:00:53.817Z,69.40
2023-02-23T04:01:45.688Z,60.33
2023-02-23T04:02:36.821Z,61.83
2023-02-23T04:03:28.403Z,60.63
2023-02-23T04:04:19.492Z,56.45
2023-02-23T04:05:10.201Z,61.88
2023-02-23T04:06:01.156Z,64.18
2023-02-23T04:06:58.316Z,60.95
2023-02-23T04:07:48.567Z,60.97
2023-02-23T04:08:40.431Z,58.80
2023-02-23T04:09:31.001Z,60.50
2023-02-23T04:10:22.760Z,58.60
2023-02-23T04:11:18.763Z,61.25
2023-02-23T04:12:27.569Z,65.55
2023-02-23T04:13:16.105Z,55.60
2023-02-23T04:13:50.125Z,61.88
2023-02-23T04:14:37.048Z,61.00
2023-02-23T04:15:15.671Z,69.22
2023-02-23T04:15:52.694Z,63.78
2023-02-23T04:16:24.430Z,64.35
2023-02-23T04:16:57.547Z,61.00
2023-02-23T04:17:29.572Z,62.08
2023-02-23T04:18:04.624Z,69.78
2023-02-23T04:18:38.689Z,70.10
2023-02-23T04:19:11.230Z,69.40
2023-02-23T04:19:53.169Z,60.17
2023-02-23T04:20:25.850Z,65.57
2023-02-23T04:20:58.247Z,60.85
2023-02-23T04:21:31.206Z,68.22
2023-02-23T04:22:03.045Z,58.53
2023-02-23T04:22:35.585Z,66.47
2023-02-23T04:23:07.684Z,61.67
2023-02-23T04:23:40.868Z,63.22
2023-02-23T04:24:12.515Z,65.88
2023-02-23T04:24:44.265Z,66.35
2023-02-23T04:25:17.506Z,57.80
2023-02-23T04:25:50.071Z,56.70
2023-02-23T04:26:22.278Z,65.70
2023-02-23T04:26:53.817Z,64.65
2023-02-23T04:27:25.410Z,63.50
2023-02-23T04:27:57.051Z,61.67
2023-02-23T04:28:29.492Z,64.35
2023-02-23T04:29:01.062Z,54.72
2023-02-23T04:29:32.622Z,57.20
2023-02-23T04:30:05.644Z,59.25
2023-02-23T04:30:37.243Z,62.80
2023-02-23T04:31:09.668Z,64.82
2023-02-23T04:31:44.348Z,57.72
2023-02-23T04:32:18.155Z,61.13
2023-02-23T04:32:49.885Z,58.28
2023-02-23T04:33:22.237Z,61.70
2023-02-23T04:33:53.884Z,52.28
2023-02-23T04:34:25.418Z,58.60
2023-02-23T04:34:56.956Z,56.45
2023-02-23T04:35:31.262Z,58.83
2023-02-23T04:36:02.985Z,57.00
2023-02-23T04:36:34.583Z,60.92
2023-02-23T04:37:06.124Z,57.38
2023-02-23T04:37:37.831Z,58.38
2023-02-23T04:38:09.425Z,49.13
2023-02-23T04:38:41.071Z,55.28
2023-02-23T04:39:12.638Z,56.85
2023-02-23T04:39:48.510Z,56.38
2023-02-23T04:40:20.223Z,49.35
2023-02-23T04:40:52.022Z,52.97
2023-02-23T04:41:23.622Z,53.53
2023-02-23T04:41:55.165Z,56.75
2023-02-23T04:42:26.824Z,54.75
2023-02-23T04:42:58.879Z,58.10
2023-02-23T04:43:30.444Z,50.78
2023-02-23T04:44:02.118Z,56.33
2023-02-23T04:44:33.673Z,53.67
2023-02-23T04:45:06.219Z,58.97
2023-02-23T04:45:37.852Z,53.22
2023-02-23T04:46:09.481Z,57.22
2023-02-23T04:46:41.075Z,47.65
2023-02-23T04:47:15.127Z,53.15
2023-02-23T04:47:49.222Z,45.47
2023-02-23T04:48:20.799Z,54.28
2023-02-23T04:48:54.939Z,49.58
2023-02-23T04:49:26.541Z,51.90
2023-02-23T04:49:58.078Z,53.38
2023-02-23T04:50:32.485Z,55.20
2023-02-23T04:51:04.618Z,55.95
2023-02-23T04:51:37.318Z,52.08
2023-02-23T04:52:09.204Z,60.67
2023-02-23T04:52:40.992Z,54.70
2023-02-23T04:53:12.566Z,58.58
2023-02-23T04:53:44.153Z,55.80
2023-02-23T04:54:15.738Z,55.08
2023-02-23T04:54:47.303Z,50.38
2023-02-23T04:55:24.147Z,55.67
2023-02-23T04:55:56.049Z,55.58
2023-02-23T04:56:30.418Z,48.58
2023-02-23T04:57:02.016Z,55.03
2023-02-23T04:57:34.712Z,53.10
2023-02-23T04:58:06.358Z,51.75
2023-02-23T04:58:38.024Z,55.67
2023-02-23T04:59:09.588Z,51.13
2023-02-23T04:59:41.541Z,50.53
2023-02-23T05:00:13.873Z,50.90
2023-02-23T05:00:45.487Z,49.13
2023-02-23T05:01:17.848Z,53.75
2023-02-23T05:01:49.771Z,50.78
2023-02-23T05:02:21.478Z,48.47
2023-02-23T05:02:53.098Z,50.55
2023-02-23T05:03:24.668Z,49.95
2023-02-23T05:03:56.251Z,48.55
2023-02-23T05:04:27.936Z,51.03
2023-02-23T05:04:59.571Z,56.58
2023-02-23T05:05:31.550Z,59.85
2023-02-23T05:06:03.756Z,57.08
2023-02-23T05:06:35.504Z,50.97
2023-02-23T05:07:07.026Z,48.30
2023-02-23T05:07:39.100Z,59.35
2023-02-23T05:08:10.683Z,54.03
2023-02-23T05:08:42.251Z,53.97
2023-02-23T05:09:14.020Z,54.47
2023-02-23T05:09:45.542Z,53.28
2023-02-23T05:10:17.118Z,60.40
2023-02-23T05:10:48.686Z,54.17
2023-02-23T05:11:20.467Z,53.25
2023-02-23T05:11:52.240Z,57.20
2023-02-23T05:12:23.816Z,49.83
2023-02-23T05:12:55.341Z,51.83
2023-02-23T05:13:26.911Z,50.40
2023-02-23T05:13:58.750Z,51.33
2023-02-23T05:14:30.329Z,58.28
2023-02-23T05:15:02.248Z,51.15
2023-02-23T05:15:33.857Z,52.42
2023-02-23T05:16:06.035Z,49.90
2023-02-23T05:16:38.211Z,49.78
2023-02-23T05:17:09.884Z,54.65
2023-02-23T05:17:42.236Z,53.22
2023-02-23T05:18:13.778Z,53.72
2023-02-23T05:18:45.359Z,55.67
2023-02-23T05:19:17.129Z,53.10
2023-02-23T05:19:48.768Z,57.10
2023-02-23T05:20:20.602Z,51.50
2023-02-23T05:20:53.476Z,52.17
2023-02-23T05:21:25.236Z,48.53
2023-02-23T05:21:56.884Z,51.60
2023-02-23T05:22:28.510Z,51.38
2023-02-23T05:23:00.074Z,50.95
2023-02-23T05:23:31.598Z,51.75
2023-02-23T05:24:03.190Z,51.13
2023-02-23T05:24:35.433Z,53.13
2023-02-23T05:25:08.774Z,54.13
2023-02-23T05:25:40.451Z,53.13
2023-02-23T05:26:13.023Z,59.67
2023-02-23T05:26:45.311Z,59.45
2023-02-23T05:27:17.829Z,63.58
2023-02-23T05:27:49.575Z,54.63
2023-02-23T05:28:21.828Z,62.33
2023-02-23T05:28:54.919Z,55.67
2023-02-23T05:29:26.624Z,60.47
2023-02-23T05:29:58.497Z,58.33
2023-02-23T05:30:30.214Z,59.80
2023-02-23T05:31:03.715Z,58.75
2023-02-23T05:31:35.894Z,62.20
2023-02-23T05:32:08.004Z,65.40
2023-02-23T05:32:39.636Z,61.00
2023-02-23T05:33:11.278Z,60.22
2023-02-23T05:33:43.070Z,61.38
2023-02-23T05:34:16.873Z,60.63
2023-02-23T05:34:48.504Z,62.08
2023-02-23T05:35:20.176Z,58.63
2023-02-23T05:35:51.738Z,62.13
2023-02-23T05:36:24.115Z,59.78
2023-02-23T05:36:55.632Z,59.78
2023-02-23T05:37:27.230Z,53.13
2023-02-23T05:37:58.742Z,57.75
2023-02-23T05:38:30.281Z,62.53
2023-02-23T05:39:01.846Z,58.58
2023-02-23T05:39:33.374Z,59.65
2023-02-23T05:40:05.533Z,61.03
2023-02-23T05:40:40.579Z,58.85
2023-02-23T05:41:14.783Z,67.53
2023-02-23T05:41:46.309Z,62.47
2023-02-23T05:42:18.262Z,66.03
2023-02-23T05:42:49.860Z,67.72
2023-02-23T05:43:21.419Z,68.07
2023-02-23T05:43:53.637Z,67.07
2023-02-23T05:44:25.259Z,67.82
2023-02-23T05:44:56.810Z,67.85
2023-02-23T05:45:28.374Z,62.08
2023-02-23T05:46:11.484Z,71.57
2023-02-23T05:46:43.120Z,63.97
2023-02-23T05:47:14.792Z,66.10
2023-02-23T05:47:46.297Z,62.33
2023-02-23T05:48:17.906Z,71.45
2023-02-23T05:48:50.392Z,59.65
2023-02-23T05:49:26.823Z,67.00
2023-02-23T05:49:58.633Z,67.95
2023-02-23T05:50:30.738Z,64.72
2023-02-23T05:51:06.646Z,66.32
2023-02-23T05:51:39.541Z,62.28
2023-02-23T05:52:11.398Z,65.60
2023-02-23T05:52:43.005Z,67.25
2023-02-23T05:53:14.557Z,66.20
2023-02-23T05:53:47.058Z,71.63
2023-02-23T05:54:18.804Z,65.13
2023-02-23T05:54:50.356Z,63.55
2023-02-23T05:55:21.895Z,66.05
2023-02-23T05:55:53.412Z,68.47
2023-02-23T05:56:26.065Z,65.15
2023-02-23T05:56:57.700Z,69.65
2023-02-23T05:57:29.268Z,65.97
2023-02-23T05:58:00.799Z,67.80
2023-02-23T05:58:32.521Z,74.20
2023-02-23T05:59:04.897Z,72.00
2023-02-23T05:59:36.518Z,69.57
2023-02-23T06:00:08.979Z,76.40
2023-02-23T06:00:40.563Z,64.35
2023-02-23T06:01:12.462Z,67.50
2023-02-23T06:01:44.088Z,69.28
2023-02-23T06:02:15.677Z,66.70
2023-02-23T06:02:47.399Z,79.53
2023-02-23T06:03:19.791Z,73.32
2023-02-23T06:03:51.704Z,70.90
2023-02-23T06:04:24.285Z,71.97
2023-02-23T06:04:56.054Z,64.88
2023-02-23T06:05:28.380Z,70.47
2023-02-23T06:06:02.641Z,67.75
2023-02-23T06:06:34.614Z,64.63
2023-02-23T06:07:06.147Z,66.47
2023-02-23T06:07:37.841Z,67.80
2023-02-23T06:08:09.493Z,64.28
2023-02-23T06:08:41.146Z,67.55
2023-02-23T06:09:12.976Z,72.32
2023-02-23T06:09:44.729Z,68.55
2023-02-23T06:10:16.734Z,69.95
2023-02-23T06:10:48.337Z,70.65
2023-02-23T06:11:20.360Z,73.03
2023-02-23T06:11:52.052Z,67.05
2023-02-23T06:12:23.870Z,74.60
2023-02-23T06:12:55.512Z,80.93
2023-02-23T06:13:27.898Z,73.20
2023-02-23T06:13:59.684Z,74.30
2023-02-23T06:14:32.352Z,73.30
2023-02-23T06:15:04.306Z,79.00
2023-02-23T06:15:36.027Z,76.28
2023-02-23T06:16:08.704Z,79.68
2023-02-23T06:16:40.469Z,76.78
2023-02-23T06:17:12.076Z,71.38
2023-02-23T06:17:43.590Z,70.22
2023-02-23T06:18:15.657Z,74.15
2023-02-23T06:18:47.386Z,68.55
2023-02-23T06:19:19.052Z,68.55
2023-02-23T06:19:50.772Z,71.70
2023-02-23T06:20:22.739Z,71.30
2023-02-23T06:20:54.685Z,78.30
2023-02-23T06:21:26.226Z,80.82
2023-02-23T06:21:57.770Z,76.65
2023-02-23T06:22:29.400Z,78.65
2023-02-23T06:23:01.034Z,82.60
2023-02-23T06:23:33.288Z,73.50
2023-02-23T06:24:05.948Z,76.45
2023-02-23T06:24:37.530Z,73.78
2023-02-23T06:25:12.778Z,78.38
2023-02-23T06:25:44.877Z,71.40
2023-02-23T06:26:16.594Z,78.75
2023-02-23T06:26:48.115Z,69.82
2023-02-23T06:27:19.761Z,81.20
2023-02-23T06:27:51.330Z,74.78
2023-02-23T06:28:23.606Z,81.88
2023-02-23T06:28:55.987Z,79.93
2023-02-23T06:29:27.885Z,71.93
2023-02-23T06:29:59.538Z,76.60
2023-02-23T06:30:31.180Z,79.53
2023-02-23T06:31:03.084Z,72.95
2023-02-23T06:31:35.921Z,79.70
2023-02-23T06:32:07.729Z,83.18
2023-02-23T06:32:39.624Z,77.00
2023-02-23T06:33:14.809Z,73.07
2023-02-23T06:33:46.360Z,75.05
2023-02-23T06:34:18.804Z,77.07
2023-02-23T06:34:50.556Z,70.30
2023-02-23T06:35:22.520Z,81.38
2023-02-23T06:35:54.811Z,79.63
2023-02-23T06:36:26.357Z,74.85
2023-02-23T06:36:57.882Z,78.63
2023-02-23T06:37:29.415Z,77.45
2023-02-23T06:38:01.715Z,85.35
2023-02-23T06:38:33.266Z,81.70
2023-02-23T06:39:04.942Z,73.05
2023-02-23T06:39:36.553Z,80.55
2023-02-23T06:40:08.861Z,84.63
2023-02-23T06:40:40.366Z,82.35
2023-02-23T06:41:12.367Z,71.90
2023-02-23T06:41:43.940Z,82.72
2023-02-23T06:42:15.519Z,76.57
2023-02-23T06:42:47.378Z,78.78
2023-02-23T06:43:19.019Z,75.13
2023-02-23T06:43:50.678Z,78.93
2023-02-23T06:44:22.690Z,82.32
2023-02-23T06:44:54.283Z,78.43
2023-02-23T06:45:26.350Z,75.82
2023-02-23T06:45:57.898Z,74.85
2023-02-23T06:46:29.537Z,81.63
2023-02-23T06:47:01.144Z,78.00
2023-02-23T06:47:33.665Z,74.97
2023-02-23T06:48:05.539Z,82.03
2023-02-23T06:48:37.879Z,75.38
2023-02-23T06:49:11.917Z,85.45
2023-02-23T06:49:43.528Z,85.35
2023-02-23T06:50:15.565Z,78.30
2023-02-23T06:50:47.122Z,81.53
2023-02-23T06:51:18.876Z,77.68
2023-02-23T06:51:50.593Z,86.57
2023-02-23T06:52:23.327Z,82.07
2023-02-23T06:52:56.653Z,84.07
2023-02-23T06:53:28.596Z,75.00
2023-02-23T06:54:02.526Z,76.85
2023-02-23T06:54:34.325Z,81.72
2023-02-23T06:55:07.998Z,78.72
2023-02-23T06:55:39.584Z,75.80
2023-02-23T06:56:12.527Z,78.50
2023-02-23T06:56:44.145Z,78.15
2023-02-23T06:57:16.500Z,81.80
2023-02-23T06:57:49.622Z,84.03
2023-02-23T06:58:21.209Z,77.50
2023-02-23T06:58:52.757Z,76.15
2023-02-23T06:59:24.355Z,79.45
2023-02-23T06:59:56.074Z,77.85
2023-02-23T07:00:27.699Z,77.20
2023-02-23T07:00:59.549Z,80.60
2023-02-23T07:01:31.512Z,88.57
2023-02-23T07:02:07.982Z,74.60
2023-02-23T07:02:39.506Z,76.68
2023-02-23T07:03:11.262Z,75.78
2023-02-23T07:03:43.030Z,83.07
2023-02-23T07:04:16.772Z,81.20
2023-02-23T07:04:48.566Z,80.20
2023-02-23T07:05:20.969Z,80.20
2023-02-23T07:05:53.865Z,87.05
2023-02-23T07:06:25.536Z,81.40
2023-02-23T07:06:57.229Z,87.05
2023-02-23T07:07:29.024Z,84.68
2023-02-23T07:08:00.597Z,81.45
2023-02-23T07:08:33.798Z,79.43
2023-02-23T07:09:05.844Z,79.70
2023-02-23T07:09:42.574Z,84.50
2023-02-23T07:10:14.074Z,88.38
2023-02-23T07:10:46.393Z,92.78
2023-02-23T07:11:20.291Z,87.47
2023-02-23T07:11:52.075Z,87.93
2023-02-23T07:12:23.703Z,88.18
2023-02-23T07:12:55.290Z,81.30
2023-02-23T07:13:26.814Z,93.18
2023-02-23T07:13:59.235Z,85.25
2023-02-23T07:14:31.024Z,92.38
2023-02-23T07:15:05.979Z,89.50
2023-02-23T07:15:37.585Z,87.88
2023-02-23T07:16:09.475Z,96.18
2023-02-23T07:16:41.227Z,81.07
2023-02-23T07:17:58.560Z,84.20
2023-02-23T07:18:30.156Z,78.57
2023-02-23T07:19:02.243Z,83.85
2023-02-23T07:19:33.812Z,84.95
2023-02-23T07:20:05.963Z,84.13
2023-02-23T07:20:37.704Z,81.35
2023-02-23T07:21:09.275Z,82.63
2023-02-23T07:21:41.093Z,78.28
2023-02-23T07:22:12.648Z,82.18
2023-02-23T07:22:44.534Z,88.45
2023-02-23T07:23:16.162Z,89.70
2023-02-23T07:23:50.536Z,90.28
2023-02-23T07:24:28.545Z,80.60
2023-02-23T07:25:00.114Z,81.43
2023-02-23T07:25:31.950Z,91.13
2023-02-23T07:26:03.803Z,83.60
2023-02-23T07:26:35.993Z,89.07
2023-02-23T07:27:07.768Z,81.82
2023-02-23T07:27:42.217Z,85.82
2023-02-23T07:28:14.655Z,88.25
2023-02-23T07:28:46.338Z,83.80
2023-02-23T07:29:17.992Z,88.90
2023-02-23T07:29:49.539Z,80.25
2023-02-23T07:30:24.426Z,88.07
2023-02-23T07:30:57.487Z,77.80
2023-02-23T07:31:29.189Z,77.43
2023-02-23T07:32:01.428Z,79.90
2023-02-23T07:32:33.144Z,78.30
2023-02-23T07:33:05.154Z,80.85
2023-02-23T07:33:36.725Z,76.80
2023-02-23T07:34:09.280Z,78.30
2023-02-23T07:34:41.083Z,79.13
2023-02-23T07:35:13.209Z,79.95
2023-02-23T07:35:45.298Z,75.47
2023-02-23T07:36:17.078Z,81.28
2023-02-23T07:36:48.835Z,71.78
2023-02-23T07:37:21.609Z,80.68
2023-02-23T07:37:53.908Z,77.25
2023-02-23T07:38:25.602Z,73.43
2023-02-23T07:38:57.512Z,79.95
2023-02-23T07:39:29.115Z,78.90
2023-02-23T07:40:01.446Z,74.45
2023-02-23T07:40:33.486Z,73.93
2023-02-23T07:41:05.760Z,82.97
2023-02-23T07:41:37.378Z,74.13
2023-02-23T07:42:10.815Z,85.88
2023-02-23T07:42:42.413Z,77.63
2023-02-23T07:43:14.791Z,77.57
2023-02-23T07:43:46.351Z,79.93
2023-02-23T07:44:18.258Z,75.95
2023-02-23T07:44:49.880Z,80.78
2023-02-23T07:45:21.435Z,78.38
2023-02-23T07:45:53.072Z,87.38
2023-02-23T07:46:25.336Z,84.32
2023-02-23T07:46:57.677Z,80.43
2023-02-23T07:47:31.203Z,85.85
2023-02-23T07:48:02.823Z,80.13
2023-02-23T07:48:34.465Z,81.00
2023-02-23T07:49:06.010Z,87.20
2023-02-23T07:49:37.626Z,82.15
2023-02-23T07:50:10.319Z,89.65
2023-02-23T07:50:42.702Z,82.53
2023-02-23T07:51:15.859Z,73.38